Terminal Aerodrome Forecast
Issued by NWS

Home | Current Version | Previous Version | Text Only | Print | Product List | Glossary On
Versions: 1 2 3 4 5 6 7 8 9 10 11 12 13 14
000
FTUS43 KTOP 231100
TAFMHK
TAF
KMHK 231123Z 2312/2412 19008KT P6SM SCT150
     FM231400 20014G22KT P6SM FEW250
     FM240100 18009KT P6SM BKN250=

USA.gov is the U.S. government's official web portal to all federal, state and local government web resources and services.